createdAt,value
2018-10-11T00:00:08.480Z,99195.19
2018-10-11T00:02:41.608Z,99192.18
2018-10-11T00:05:14.011Z,99191.06
2018-10-11T00:07:45.761Z,99194.03
2018-10-11T00:10:17.818Z,99194.30
2018-10-11T00:12:49.348Z,99194.41
2018-10-11T00:15:20.570Z,99194.13
2018-10-11T00:17:52.543Z,99185.14
2018-10-11T00:20:23.204Z,99187.07
2018-10-11T00:22:54.160Z,99187.20
2018-10-11T00:25:24.816Z,99188.77
2018-10-11T00:27:55.922Z,99187.59
2018-10-11T00:30:26.991Z,99183.88
2018-10-11T00:32:57.884Z,99178.78
2018-10-11T00:35:28.690Z,99172.25
2018-10-11T00:37:59.506Z,99170.13
2018-10-11T00:40:30.477Z,99170.86
2018-10-11T00:43:01.595Z,99173.53
2018-10-11T00:45:32.377Z,99180.60
2018-10-11T00:48:03.165Z,99180.60
2018-10-11T00:50:34.151Z,99170.92
2018-10-11T00:53:05.013Z,99175.20
2018-10-11T00:55:42.141Z,99165.77
2018-10-11T00:58:12.861Z,99157.88
2018-10-11T01:00:43.879Z,99162.16
2018-10-11T01:03:15.577Z,99153.45
2018-10-11T01:05:46.482Z,99147.35
2018-10-11T01:08:17.211Z,99145.42
2018-10-11T01:10:48.032Z,99154.27
2018-10-11T01:13:18.936Z,99151.88
2018-10-11T01:15:49.518Z,99154.37
2018-10-11T01:18:20.438Z,99154.84
2018-10-11T01:20:51.024Z,99155.55
2018-10-11T01:23:22.136Z,99163.44
2018-10-11T01:25:52.954Z,99162.97
2018-10-11T01:28:23.858Z,99162.50
2018-10-11T01:30:59.341Z,99153.16
2018-10-11T01:33:30.011Z,99156.12
2018-10-11T01:36:00.806Z,99159.83
2018-10-11T01:38:32.560Z,99157.44
2018-10-11T01:41:03.470Z,99159.22
2018-10-11T01:43:34.284Z,99163.54
2018-10-11T01:46:05.059Z,99159.26
2018-10-11T01:48:35.794Z,99159.30
2018-10-11T01:51:06.720Z,99154.41
2018-10-11T01:53:37.690Z,99146.74
2018-10-11T01:56:09.055Z,99147.08
2018-10-11T01:58:39.947Z,99146.48
2018-10-11T02:01:10.967Z,99145.77
2018-10-11T02:03:41.645Z,99147.79
2018-10-11T02:06:15.054Z,99158.18
2018-10-11T02:08:46.059Z,99160.47
2018-10-11T02:11:16.960Z,99165.05
2018-10-11T02:13:47.759Z,99168.77
2018-10-11T02:16:18.624Z,99166.84
2018-10-11T02:18:49.341Z,99165.05
2018-10-11T02:21:20.048Z,99167.08
2018-10-11T02:23:51.076Z,99162.06
2018-10-11T02:26:22.133Z,99161.45
2018-10-11T02:28:52.826Z,99167.19
2018-10-11T02:31:23.701Z,99172.34
2018-10-11T02:33:54.435Z,99171.77
2018-10-11T02:36:25.345Z,99165.77
2018-10-11T02:38:56.187Z,99175.37
2018-10-11T02:41:27.815Z,99175.23
2018-10-11T02:43:58.422Z,99167.68
2018-10-11T02:46:29.270Z,99163.39
2018-10-11T02:49:00.156Z,99168.29
2018-10-11T02:51:30.881Z,99166.23
2018-10-11T02:54:02.369Z,99166.37
2018-10-11T02:56:33.592Z,99167.68
2018-10-11T02:59:27.788Z,99165.52
2018-10-11T03:01:58.746Z,99168.19
2018-10-11T03:04:32.275Z,99154.43
2018-10-11T03:07:03.180Z,99160.77
2018-10-11T03:09:34.213Z,99160.16
2018-10-11T03:12:05.019Z,99165.21
2018-10-11T03:14:35.601Z,99160.78
2018-10-11T03:17:06.446Z,99158.77
2018-10-11T03:19:37.338Z,99158.39
2018-10-11T03:22:08.271Z,99159.47
2018-10-11T03:24:38.948Z,99154.42
2018-10-11T03:27:09.646Z,99151.08
2018-10-11T03:29:41.363Z,99154.90
2018-10-11T03:32:12.136Z,99151.56
2018-10-11T03:34:43.316Z,99164.47
2018-10-11T03:37:14.703Z,99156.81
2018-10-11T03:39:45.571Z,99159.11
2018-10-11T03:42:16.536Z,99163.29
2018-10-11T03:44:47.297Z,99153.92
2018-10-11T03:47:18.015Z,99163.27
2018-10-11T03:49:48.766Z,99158.98
2018-10-11T03:52:19.565Z,99163.88
2018-10-11T03:54:50.387Z,99170.11
2018-10-11T03:57:21.289Z,99161.38
2018-10-11T03:59:52.045Z,99162.69
2018-10-11T04:02:22.981Z,99159.45
2018-10-11T04:04:53.803Z,99167.48
2018-10-11T04:07:24.781Z,99171.63
2018-10-11T04:09:56.377Z,99172.36
2018-10-11T04:12:27.196Z,99171.99
2018-10-11T04:14:59.112Z,99171.89
2018-10-11T04:17:30.075Z,99167.58
2018-10-11T04:20:00.709Z,99166.63
2018-10-11T04:22:31.526Z,99169.13
2018-10-11T04:25:02.414Z,99162.55
2018-10-11T04:27:33.472Z,99165.21
2018-10-11T04:30:04.398Z,99161.03
2018-10-11T04:32:35.370Z,99163.05
2018-10-11T04:35:06.194Z,99160.78
2018-10-11T04:37:43.602Z,99163.76
2018-10-11T04:40:14.584Z,99172.05
2018-10-11T04:42:45.336Z,99165.97
2018-10-11T04:45:16.167Z,99164.75
2018-10-11T04:47:47.074Z,99163.44
2018-10-11T04:50:18.101Z,99160.91
2018-10-11T04:52:49.056Z,99158.77
2018-10-11T04:55:20.134Z,99156.84
2018-10-11T04:57:50.967Z,99156.92
2018-10-11T05:00:21.888Z,99158.27
2018-10-11T05:02:52.797Z,99156.95
2018-10-11T05:05:24.007Z,99150.58
2018-10-11T05:08:01.247Z,99156.31
2018-10-11T05:10:32.048Z,99153.48
2018-10-11T05:13:02.920Z,99161.47
2018-10-11T05:15:34.903Z,99156.22
2018-10-11T05:18:06.793Z,99164.72
2018-10-11T05:20:37.589Z,99161.95
2018-10-11T05:23:08.639Z,99171.90
2018-10-11T05:25:39.527Z,99167.08
2018-10-11T05:28:10.581Z,99165.56
2018-10-11T05:30:45.241Z,99167.92
2018-10-11T05:33:17.080Z,99164.69
2018-10-11T05:35:47.777Z,99167.92
2018-10-11T05:38:18.556Z,99170.21
2018-10-11T05:40:56.660Z,99172.47
2018-10-11T05:43:27.671Z,99165.42
2018-10-11T05:46:02.094Z,99174.50
2018-10-11T05:48:34.544Z,99170.45
2018-10-11T05:51:06.647Z,99175.81
2018-10-11T05:53:37.614Z,99186.91
2018-10-11T05:56:08.736Z,99177.10
2018-10-11T05:58:40.468Z,99178.15
2018-10-11T06:01:12.562Z,99184.86
2018-10-11T06:03:45.960Z,99179.70
2018-10-11T06:06:16.801Z,99186.59
2018-10-11T06:08:48.439Z,99183.58
2018-10-11T06:11:19.675Z,99186.55
2018-10-11T06:13:51.841Z,99189.61
2018-10-11T06:16:22.885Z,99189.80
2018-10-11T06:18:53.891Z,99191.67
2018-10-11T06:21:24.860Z,99192.56
2018-10-11T06:23:56.364Z,99191.05
2018-10-11T06:26:27.433Z,99190.76
2018-10-11T06:28:58.560Z,99195.22
2018-10-11T06:31:29.620Z,99196.28
2018-10-11T06:34:00.470Z,99199.22
2018-10-11T06:36:31.857Z,99201.08
2018-10-11T06:39:03.717Z,99197.62
2018-10-11T06:41:34.705Z,99202.34
2018-10-11T06:44:05.739Z,99194.11
2018-10-11T06:46:36.392Z,99190.64
2018-10-11T06:49:07.717Z,99190.94
2018-10-11T06:51:38.593Z,99193.33
2018-10-11T06:54:09.571Z,99192.41
2018-10-11T06:56:40.629Z,99194.50
2018-10-11T06:59:11.798Z,99189.00
2018-10-11T07:01:42.717Z,99192.23
2018-10-11T07:04:14.302Z,99196.30
2018-10-11T07:06:45.118Z,99191.61
2018-10-11T07:09:16.584Z,99191.42
2018-10-11T07:11:47.494Z,99191.26
2018-10-11T07:14:18.120Z,99188.70
2018-10-11T07:16:49.192Z,99192.56
2018-10-11T07:19:20.465Z,99187.36
2018-10-11T07:21:51.239Z,99195.85
2018-10-11T07:24:22.573Z,99199.19
2018-10-11T07:26:54.474Z,99206.58
2018-10-11T07:29:25.467Z,99203.48
2018-10-11T07:31:56.453Z,99215.01
2018-10-11T07:34:27.342Z,99218.55
2018-10-11T07:36:58.244Z,99219.96
2018-10-11T07:39:29.121Z,99227.41
2018-10-11T07:42:00.808Z,99225.61
2018-10-11T07:44:32.465Z,99223.71
2018-10-11T07:47:03.949Z,99228.42
2018-10-11T07:49:34.965Z,99227.78
2018-10-11T07:52:06.025Z,99236.10
2018-10-11T07:54:36.787Z,99235.19
2018-10-11T07:57:08.233Z,99233.19
2018-10-11T07:59:38.826Z,99231.59
2018-10-11T08:02:10.613Z,99239.22
2018-10-11T08:04:41.501Z,99240.95
2018-10-11T08:07:12.324Z,99243.23
2018-10-11T08:09:43.106Z,99245.50
2018-10-11T08:12:14.246Z,99239.52
2018-10-11T08:14:45.524Z,99244.86
2018-10-11T08:17:16.603Z,99245.30
2018-10-11T08:19:47.361Z,99247.67
2018-10-11T08:22:18.432Z,99242.33
2018-10-11T08:24:50.724Z,99253.66
2018-10-11T08:27:22.113Z,99248.31
2018-10-11T08:29:53.100Z,99245.30
2018-10-11T08:32:23.935Z,99251.96
2018-10-11T08:34:54.967Z,99258.89
2018-10-11T08:37:26.024Z,99260.16
2018-10-11T09:37:37.116Z,99246.37
2018-10-11T09:40:09.428Z,99239.16
2018-10-11T09:42:41.918Z,99242.81
2018-10-11T09:45:14.426Z,99236.79
2018-10-11T09:47:46.659Z,99240.23
2018-10-11T09:50:17.840Z,99241.31
2018-10-11T09:52:49.093Z,99235.77
2018-10-11T09:55:20.148Z,99237.39
2018-10-11T09:57:51.520Z,99233.00
2018-10-11T10:00:27.386Z,99233.97
2018-10-11T10:02:58.301Z,99227.77
2018-10-11T10:05:29.249Z,99227.53
2018-10-11T10:08:00.174Z,99227.26
2018-10-11T10:10:31.128Z,99225.91
2018-10-11T10:13:02.152Z,99222.25
2018-10-11T10:15:34.285Z,99219.50
2018-10-11T10:18:08.077Z,99223.49
2018-10-11T10:20:40.505Z,99226.49
2018-10-11T10:23:11.554Z,99217.31
2018-10-11T10:25:42.809Z,99222.25
2018-10-11T10:28:14.043Z,99224.47
2018-10-11T10:30:54.709Z,99215.14
2018-10-11T10:33:26.509Z,99211.00
2018-10-11T10:35:58.154Z,99205.97
2018-10-11T10:38:29.010Z,99209.13
2018-10-11T10:41:00.220Z,99208.37
2018-10-11T10:43:30.921Z,99200.64
2018-10-11T10:46:02.033Z,99206.28
2018-10-11T10:48:33.010Z,99205.08
2018-10-11T10:51:04.112Z,99200.44
2018-10-11T10:53:36.022Z,99202.98
2018-10-11T10:56:07.153Z,99193.67
2018-10-11T10:58:38.949Z,99198.83
2018-10-11T11:01:10.138Z,99187.77
2018-10-11T11:03:41.126Z,99184.75
2018-10-11T11:06:11.976Z,99184.58
2018-10-11T11:08:43.046Z,99181.95
2018-10-11T11:11:13.966Z,99176.81
2018-10-11T11:13:45.276Z,99177.13
2018-10-11T11:16:16.393Z,99175.02
2018-10-11T11:18:47.369Z,99179.14
2018-10-11T11:21:19.183Z,99175.69
2018-10-11T11:23:50.742Z,99180.89
2018-10-11T11:26:22.106Z,99179.34
2018-10-11T11:28:54.519Z,99176.56
2018-10-11T11:31:25.423Z,99180.75
2018-10-11T11:33:56.061Z,99179.58
2018-10-11T11:36:28.123Z,99177.78
2018-10-11T11:38:59.051Z,99176.95
2018-10-11T11:41:30.075Z,99174.94
2018-10-11T11:44:00.980Z,99178.58
2018-10-11T11:46:32.120Z,99178.92
2018-10-11T11:49:02.957Z,99173.06
2018-10-11T11:51:34.248Z,99175.73
2018-10-11T11:54:09.207Z,99176.27
2018-10-11T11:56:40.471Z,99178.73
2018-10-11T11:59:11.559Z,99174.98
2018-10-11T12:01:42.863Z,99165.70
2018-10-11T12:04:13.596Z,99168.53
2018-10-11T12:06:44.630Z,99166.37
2018-10-11T12:09:16.398Z,99165.34
2018-10-11T12:11:47.630Z,99167.66
2018-10-11T12:14:18.507Z,99169.50
2018-10-11T12:16:49.462Z,99163.83
2018-10-11T12:19:21.000Z,99159.98
2018-10-11T12:21:51.919Z,99163.97
2018-10-11T12:24:23.088Z,99167.94
2018-10-11T12:26:54.157Z,99172.02
2018-10-11T12:29:25.679Z,99172.66
2018-10-11T12:31:56.614Z,99174.14
2018-10-11T12:34:27.769Z,99175.47
2018-10-11T12:36:58.959Z,99170.26
2018-10-11T12:39:30.062Z,99181.04
2018-10-11T12:42:01.127Z,99178.39
2018-10-11T12:44:32.497Z,99184.64
2018-10-11T12:47:04.036Z,99185.59
2018-10-11T12:49:39.228Z,99186.22
2018-10-11T12:52:06.289Z,99189.95
2018-10-11T12:54:38.156Z,99189.60
2018-10-11T12:57:13.573Z,99190.57
2018-10-11T12:59:39.756Z,99189.57
2018-10-11T13:02:10.641Z,99182.58
2018-10-11T13:04:41.691Z,99193.16
2018-10-11T13:07:14.309Z,99181.94
2018-10-11T13:09:45.405Z,99188.94
2018-10-11T13:12:17.611Z,99190.92
2018-10-11T13:14:48.786Z,99191.63
2018-10-11T13:17:19.921Z,99184.86
2018-10-11T13:19:51.151Z,99181.75
2018-10-11T13:22:22.455Z,99185.89
2018-10-11T13:24:53.333Z,99190.38
2018-10-11T13:27:24.529Z,99190.92
2018-10-11T13:29:55.792Z,99188.14
2018-10-11T13:32:27.368Z,99185.56
2018-10-11T13:34:58.416Z,99186.61
2018-10-11T13:37:29.908Z,99183.35
2018-10-11T13:40:01.188Z,99189.06
2018-10-11T13:42:32.650Z,99180.47
2018-10-11T13:45:03.584Z,99184.44
2018-10-11T13:47:37.876Z,99184.79
2018-10-11T13:50:06.522Z,99190.08
2018-10-11T13:52:37.332Z,99188.92
2018-10-11T13:55:12.147Z,99186.79
2018-10-11T13:57:39.930Z,99179.85
2018-10-11T14:00:11.274Z,99181.38
2018-10-11T14:02:42.411Z,99173.24
2018-10-11T14:05:13.403Z,99178.73
2018-10-11T14:07:44.267Z,99175.55
2018-10-11T14:10:15.302Z,99178.56
2018-10-11T14:12:46.668Z,99176.89
2018-10-11T14:15:17.845Z,99181.36
2018-10-11T14:17:48.952Z,99180.83
2018-10-11T14:20:21.467Z,99175.50
2018-10-11T14:22:52.739Z,99168.88
2018-10-11T14:25:23.999Z,99179.69
2018-10-11T14:27:55.748Z,99173.05
2018-10-11T14:30:26.726Z,99174.56
2018-10-11T14:32:58.594Z,99172.91
2018-10-11T14:35:30.076Z,99180.20
2018-10-11T14:38:01.182Z,99175.55
2018-10-11T14:40:32.380Z,99175.08
2018-10-11T14:43:03.461Z,99169.29
2018-10-11T14:45:34.596Z,99166.84
2018-10-11T14:48:06.032Z,99166.58
2018-10-11T14:50:37.439Z,99172.22
2018-10-11T14:53:08.904Z,99171.24
2018-10-11T14:55:39.950Z,99175.35
2018-10-11T14:58:10.930Z,99166.86
2018-10-11T15:00:42.178Z,99172.03
2018-10-11T15:03:13.602Z,99164.38
2018-10-11T15:05:44.869Z,99167.70
2018-10-11T15:08:16.107Z,99159.70
2018-10-11T15:10:47.059Z,99158.31
2018-10-11T15:13:18.705Z,99154.48
2018-10-11T15:15:52.866Z,99159.30
2018-10-11T15:18:24.325Z,99158.44
2018-10-11T15:20:55.793Z,99162.03
2018-10-11T15:23:26.855Z,99153.20
2018-10-11T15:25:57.661Z,99154.36
2018-10-11T15:28:29.690Z,99159.12
2018-10-11T15:31:00.715Z,99153.84
2018-10-11T15:33:32.162Z,99158.83
2018-10-11T15:36:03.622Z,99162.47
2018-10-11T15:38:35.177Z,99166.45
2018-10-11T15:41:06.933Z,99167.77
2018-10-11T15:43:38.109Z,99165.11
2018-10-11T15:46:09.431Z,99172.09
2018-10-11T15:48:41.016Z,99171.73
2018-10-11T15:51:11.955Z,99173.56
2018-10-11T15:53:43.701Z,99174.03
2018-10-11T15:56:15.224Z,99183.28
2018-10-11T15:58:46.402Z,99186.59
2018-10-11T16:01:18.266Z,99185.89
2018-10-11T16:03:49.681Z,99191.27
2018-10-11T16:06:21.631Z,99195.91
2018-10-11T16:08:53.234Z,99194.69
2018-10-11T16:11:24.595Z,99201.25
2018-10-11T16:13:56.799Z,99197.90
2018-10-11T16:16:28.266Z,99195.52
2018-10-11T16:18:59.274Z,99197.94
2018-10-11T16:21:30.813Z,99197.70
2018-10-11T16:24:01.886Z,99204.75
2018-10-11T16:26:33.098Z,99208.05
2018-10-11T16:29:04.456Z,99205.48
2018-10-11T16:31:35.711Z,99209.42
2018-10-11T16:34:07.653Z,99214.13
2018-10-11T16:36:39.659Z,99215.23
2018-10-11T16:39:11.277Z,99217.94
2018-10-11T16:41:42.429Z,99222.43
2018-10-11T16:44:14.639Z,99222.83
2018-10-11T16:46:46.175Z,99230.04
2018-10-11T16:49:18.553Z,99238.46
2018-10-11T16:51:49.873Z,99233.13
2018-10-11T16:54:21.692Z,99239.73
2018-10-11T16:56:54.591Z,99238.49
2018-10-11T16:59:28.765Z,99243.66
2018-10-11T17:02:00.497Z,99249.72
2018-10-11T17:04:34.980Z,99250.72
2018-10-11T17:07:07.878Z,99250.56
2018-10-11T17:09:42.445Z,99253.52
2018-10-11T17:12:15.618Z,99256.34
2018-10-11T17:14:48.954Z,99257.66
2018-10-11T17:17:21.634Z,99257.20
2018-10-11T17:19:54.775Z,99255.13
2018-10-11T17:22:27.654Z,99260.36
2018-10-11T17:25:01.847Z,99261.75
2018-10-11T17:27:35.474Z,99259.36
2018-10-11T17:30:08.845Z,99259.63
2018-10-11T17:32:41.463Z,99264.72
2018-10-11T17:35:14.233Z,99257.98
2018-10-11T17:37:46.410Z,99260.31
2018-10-11T17:40:19.256Z,99262.53
2018-10-11T17:42:52.479Z,99261.99
2018-10-11T17:45:25.615Z,99260.16
2018-10-11T17:47:59.256Z,99269.72
2018-10-11T17:50:32.929Z,99264.43
2018-10-11T17:53:06.274Z,99260.31
2018-10-11T17:55:39.395Z,99265.81
2018-10-11T17:58:12.086Z,99266.23
2018-10-11T18:00:45.007Z,99268.53
2018-10-11T18:03:18.239Z,99269.09
2018-10-11T18:05:52.813Z,99271.81
2018-10-11T18:08:26.518Z,99270.77
2018-10-11T18:10:58.960Z,99275.86
2018-10-11T18:13:31.232Z,99272.02
2018-10-11T18:16:04.263Z,99266.40
2018-10-11T18:18:36.911Z,99276.53
2018-10-11T18:21:10.272Z,99275.91
2018-10-11T18:23:43.023Z,99277.16
2018-10-11T18:26:15.301Z,99272.66
2018-10-11T18:28:47.690Z,99276.69
2018-10-11T18:31:20.434Z,99269.03
2018-10-11T18:33:52.359Z,99278.83
2018-10-11T18:36:23.908Z,99275.20
2018-10-11T18:38:56.113Z,99273.95
2018-10-11T18:41:28.203Z,99287.33
2018-10-11T18:44:01.903Z,99285.20
2018-10-11T18:46:35.620Z,99289.01
2018-10-11T18:49:09.449Z,99296.84
2018-10-11T18:51:42.289Z,99299.82
2018-10-11T18:54:15.019Z,99303.84
2018-10-11T18:56:48.170Z,99309.44
2018-10-11T18:59:20.688Z,99309.64
2018-10-11T19:01:53.705Z,99309.10
2018-10-11T19:04:26.901Z,99311.98
2018-10-11T19:07:00.100Z,99315.75
2018-10-11T19:09:32.830Z,99323.16
2018-10-11T19:12:06.073Z,99323.05
2018-10-11T19:14:38.796Z,99324.84
2018-10-11T19:17:12.304Z,99319.56
2018-10-11T19:19:45.315Z,99322.77
2018-10-11T19:22:18.446Z,99319.91
2018-10-11T19:24:51.906Z,99323.16
2018-10-11T19:27:24.606Z,99328.71
2018-10-11T19:29:57.526Z,99327.11
2018-10-11T19:32:30.251Z,99335.16
2018-10-11T19:35:02.810Z,99334.94
2018-10-11T19:37:35.860Z,99338.80
2018-10-11T19:40:08.506Z,99334.62
2018-10-11T19:42:41.154Z,99325.62
2018-10-11T19:45:13.603Z,99330.36
2018-10-11T19:47:46.847Z,99335.61
2018-10-11T19:50:19.887Z,99339.61
2018-10-11T19:52:52.546Z,99344.33
2018-10-11T19:55:25.737Z,99341.23
2018-10-11T19:57:58.838Z,99345.37
2018-10-11T20:00:32.309Z,99349.84
2018-10-11T20:03:05.170Z,99347.34
2018-10-11T20:05:37.692Z,99346.91
2018-10-11T20:08:09.906Z,99346.75
2018-10-11T20:10:42.474Z,99345.95
2018-10-11T20:13:13.913Z,99349.36
2018-10-11T20:15:45.568Z,99348.78
2018-10-11T20:18:17.471Z,99343.92
2018-10-11T20:20:49.058Z,99334.12
2018-10-11T20:23:20.440Z,99343.50
2018-10-11T20:25:52.057Z,99350.78
2018-10-11T20:28:24.099Z,99352.50
2018-10-11T20:30:56.118Z,99355.37
2018-10-11T20:33:28.112Z,99357.05
2018-10-11T20:36:00.018Z,99360.41
2018-10-11T20:38:31.338Z,99359.59
2018-10-11T20:41:02.663Z,99366.28
2018-10-11T20:43:34.428Z,99370.84
2018-10-11T20:46:05.447Z,99364.41
2018-10-11T20:48:38.063Z,99365.57
2018-10-11T20:51:09.492Z,99375.51
2018-10-11T20:53:40.599Z,99371.22
2018-10-11T20:56:11.737Z,99370.96
2018-10-11T20:58:42.792Z,99368.58
2018-10-11T21:01:13.719Z,99371.70
2018-10-11T21:03:45.166Z,99375.37
2018-10-11T21:06:16.542Z,99378.13
2018-10-11T21:08:47.594Z,99374.18
2018-10-11T21:11:19.305Z,99376.47
2018-10-11T21:13:50.472Z,99372.27
2018-10-11T21:16:21.578Z,99368.67
2018-10-11T21:18:52.461Z,99371.05
2018-10-11T21:21:23.405Z,99372.12
2018-10-11T21:23:54.279Z,99364.59
2018-10-11T21:26:25.450Z,99369.25
2018-10-11T21:28:57.888Z,99361.24
2018-10-11T21:31:28.915Z,99360.44
2018-10-11T21:34:00.197Z,99360.17
2018-10-11T21:36:31.392Z,99358.36
2018-10-11T21:39:02.396Z,99354.55
2018-10-11T21:41:33.118Z,99359.70
2018-10-11T21:44:04.300Z,99361.24
2018-10-11T21:46:36.306Z,99362.92
2018-10-11T21:49:07.113Z,99362.34
2018-10-11T21:51:37.952Z,99365.57
2018-10-11T21:54:08.883Z,99363.07
2018-10-11T21:56:39.560Z,99359.85
2018-10-11T21:59:10.865Z,99352.66
2018-10-11T22:01:42.093Z,99356.62
2018-10-11T22:04:13.017Z,99356.38
2018-10-11T22:06:44.505Z,99361.05
2018-10-11T22:09:15.694Z,99365.00
2018-10-11T22:11:46.452Z,99363.08
2018-10-11T22:14:56.205Z,99368.46
2018-10-11T22:17:27.106Z,99368.45
2018-10-11T22:19:57.957Z,99367.84
2018-10-11T22:22:29.218Z,99372.41
2018-10-11T22:25:00.133Z,99375.16
2018-10-11T22:27:30.966Z,99375.87
2018-10-11T22:30:01.902Z,99372.98
2018-10-11T22:32:32.801Z,99370.72
2018-10-11T22:35:03.611Z,99370.12
2018-10-11T22:37:34.666Z,99366.41
2018-10-11T22:40:05.525Z,99362.78
2018-10-11T22:42:36.229Z,99362.32
2018-10-11T22:45:07.111Z,99359.19
2018-10-11T22:47:37.948Z,99365.80
2018-10-11T22:50:08.784Z,99356.24
2018-10-11T22:52:39.712Z,99355.02
2018-10-11T22:55:10.538Z,99353.84
2018-10-11T22:57:41.359Z,99348.45
2018-10-11T23:00:12.957Z,99355.88
2018-10-11T23:03:34.315Z,99357.19
2018-10-11T23:06:05.138Z,99355.76
2018-10-11T23:08:36.066Z,99356.94
2018-10-11T23:11:06.934Z,99355.63
2018-10-11T23:13:37.966Z,99354.55
2018-10-11T23:16:09.172Z,99357.05
2018-10-11T23:18:40.636Z,99361.51
2018-10-11T23:21:12.097Z,99360.80
2018-10-11T23:23:43.877Z,99361.86
2018-10-11T23:26:14.703Z,99356.36
2018-10-11T23:28:45.468Z,99354.22
2018-10-11T23:31:16.468Z,99352.78
2018-10-11T23:33:47.520Z,99354.33
2018-10-11T23:36:18.572Z,99358.16
2018-10-11T23:38:49.371Z,99356.50
2018-10-11T23:41:20.319Z,99359.36
2018-10-11T23:43:51.063Z,99353.38
2018-10-11T23:46:21.840Z,99355.07
2018-10-11T23:48:52.509Z,99359.87
2018-10-11T23:51:23.281Z,99354.81
2018-10-11T23:53:54.152Z,99349.67
2018-10-11T23:56:24.820Z,99358.78
2018-10-11T23:58:55.593Z,99358.28
